Lisbon, New Hampshire
Current Conditions -  °F | °C
As of 10:01 PM on Wednesday 26 Nov 2014 (Local Time) from KHIE Reporting Station
Light Snow Light Snow  
Wind Chill: 21°   Ceiling: 3600
Heat Index: 30°   Visibility: 3mi
Dew Point: 27°   Wind: 10mph
Humidity: 88%   Direction: 350°N
Pressure: 29.86"   Gusts: NA
Location:  44.21°N, 71.9°W
Report Text: KHIE 270301Z AUTO 35009KT 3SM -SN BR SCT007 OVC036 M01/M03 A2986 RMK AO2 P0001 T10111028
Loading
Personal Weather Stations






























Interactive Weather Map New forecast layout! Learn more

10-Day Weather Forecast

Advertisements
Track Severe Weather on mobile